Time;durP1;ratioP1;P1;durP2;ratioP2;P2;SDS_P1;SDS_P2;PMS_P1;PMS_P2;Temp;Humidity;BMP_temperature;BMP_pressure;BME280_temperature;BME280_humidity;BME280_pressure;Samples;Min_cycle;Max_cycle;Signal;HPM_P1;HPM_P2
2021/12/08 00:03:52;;;;;;;3.53;0.90;;;4.00;99.90;;;;;;7372010;32;20140;-60
2021/12/08 00:07:55;;;;;;;4.03;0.90;;;4.10;99.90;;;;;;7368861;32;20119;-60
2021/12/08 00:16:21;;;;;;;5.60;0.95;;;4.30;99.90;;;;;;7344327;32;20267;-60
2021/12/08 00:20:26;;;;;;;3.15;0.90;;;4.40;99.90;;;;;;7368277;32;20111;-59
2021/12/08 00:24:28;;;;;;;5.10;0.88;;;4.50;99.90;;;;;;7371962;32;20110;-59
2021/12/08 00:28:31;;;;;;;5.82;1.02;;;4.40;99.90;;;;;;7368354;32;20170;-60
2021/12/08 00:32:35;;;;;;;4.18;0.95;;;4.30;99.90;;;;;;7374787;32;20183;-60
2021/12/08 00:36:45;;;;;;;2.28;0.93;;;4.30;99.90;;;;;;7371619;32;20111;-60
2021/12/08 00:40:49;;;;;;;4.57;1.08;;;4.20;99.90;;;;;;7375835;32;20507;-60
2021/12/08 00:44:51;;;;;;;3.72;0.82;;;4.10;99.90;;;;;;7367394;32;20111;-60
2021/12/08 00:48:53;;;;;;;2.60;0.70;;;4.20;99.90;;;;;;7373413;32;20111;-60
2021/12/08 00:52:57;;;;;;;4.18;1.10;;;4.10;99.90;;;;;;7386500;32;20497;-60
2021/12/08 00:56:59;;;;;;;6.05;1.02;;;4.20;99.90;;;;;;7386985;32;20574;-60
2021/12/08 01:01:00;;;;;;;3.83;1.00;;;4.10;99.90;;;;;;7382202;32;20643;-60
2021/12/08 01:05:03;;;;;;;2.45;0.80;;;4.10;99.90;;;;;;7372830;32;20111;-59
2021/12/08 01:09:05;;;;;;;4.70;1.08;;;4.10;99.90;;;;;;7383079;32;20111;-60
2021/12/08 01:13:09;;;;;;;5.03;1.17;;;4.20;99.90;;;;;;7372029;32;20141;-60
2021/12/08 01:17:11;;;;;;;3.15;1.20;;;4.10;99.90;;;;;;7384641;32;20122;-60
2021/12/08 01:21:14;;;;;;;4.70;1.02;;;4.10;99.90;;;;;;7386479;32;20107;-59
2021/12/08 01:25:15;;;;;;;5.00;1.05;;;4.10;99.90;;;;;;7367896;32;20563;-60
2021/12/08 01:29:17;;;;;;;2.37;0.88;;;4.10;99.90;;;;;;7369486;32;20433;-59
2021/12/08 01:33:20;;;;;;;2.03;0.98;;;4.20;99.90;;;;;;7374236;32;20139;-60
2021/12/08 01:37:22;;;;;;;4.40;1.15;;;4.20;99.90;;;;;;7386282;32;20515;-60
2021/12/08 01:41:25;;;;;;;2.00;0.75;;;4.20;99.90;;;;;;7371851;32;20233;-60
2021/12/08 01:49:48;;;;;;;2.95;0.95;;;4.20;99.90;;;;;;7385964;32;20208;-60
2021/12/08 01:53:52;;;;;;;2.67;0.70;;;4.20;99.90;;;;;;7385389;32;20119;-60
2021/12/08 01:57:54;;;;;;;3.33;1.20;;;4.30;99.90;;;;;;7384701;32;20656;-60
2021/12/08 02:01:56;;;;;;;4.07;1.05;;;4.30;99.90;;;;;;7363822;32;20141;-60
2021/12/08 02:05:58;;;;;;;4.28;1.15;;;4.40;99.90;;;;;;7374961;32;20842;-61
2021/12/08 02:10:00;;;;;;;5.15;1.20;;;4.40;99.90;;;;;;7368029;32;20145;-61
2021/12/08 02:14:03;;;;;;;3.87;0.85;;;4.40;99.90;;;;;;7367527;32;20648;-60
2021/12/08 02:18:07;;;;;;;3.15;1.00;;;4.40;99.90;;;;;;7370376;32;20204;-60
2021/12/08 02:22:09;;;;;;;3.47;0.90;;;4.40;99.90;;;;;;7383754;32;20111;-60
2021/12/08 02:26:11;;;;;;;4.97;0.95;;;4.40;99.90;;;;;;7383291;32;20119;-60
2021/12/08 02:30:24;;;;;;;4.68;0.80;;;4.50;99.90;;;;;;7384513;32;20133;-60
2021/12/08 02:47:32;;;;;;;2.00;0.73;;;4.70;99.90;;;;;;7385273;32;20108;-59
2021/12/08 02:51:36;;;;;;;4.03;1.05;;;4.70;99.90;;;;;;7383047;32;20175;-60
2021/12/08 02:55:38;;;;;;;2.22;0.90;;;4.70;99.90;;;;;;7353476;32;20115;-60
2021/12/08 02:59:42;;;;;;;3.33;0.62;;;4.70;99.90;;;;;;7385187;32;20144;-60
2021/12/08 03:03:43;;;;;;;3.97;1.02;;;4.70;99.90;;;;;;7382944;32;20125;-60
2021/12/08 03:07:45;;;;;;;3.33;0.85;;;4.70;99.90;;;;;;7366975;32;20593;-60
2021/12/08 03:11:49;;;;;;;2.28;0.82;;;4.70;99.90;;;;;;7377277;32;20138;-59
2021/12/08 03:15:50;;;;;;;3.03;1.20;;;4.80;99.90;;;;;;7380360;32;20388;-60
2021/12/08 03:19:52;;;;;;;3.40;0.75;;;4.80;99.90;;;;;;7361066;32;20110;-59
2021/12/08 03:24:09;;;;;;;3.62;0.80;;;4.80;99.90;;;;;;7361697;32;20544;-60
2021/12/08 03:28:25;;;;;;;4.53;0.90;;;4.90;99.90;;;;;;7383374;32;21254;-60
2021/12/08 03:32:36;;;;;;;3.08;1.00;;;4.80;99.90;;;;;;7381602;32;20106;-60
2021/12/08 03:36:38;;;;;;;6.55;0.80;;;4.80;99.90;;;;;;7380186;32;20553;-60
2021/12/08 03:40:39;;;;;;;3.55;1.02;;;4.90;99.90;;;;;;7382283;32;20107;-60
2021/12/08 03:44:41;;;;;;;2.70;0.90;;;4.80;99.90;;;;;;7377687;32;20609;-60
2021/12/08 03:48:47;;;;;;;2.65;1.10;;;4.90;99.90;;;;;;7382385;32;20129;-60
2021/12/08 03:52:49;;;;;;;3.12;0.90;;;4.90;99.90;;;;;;7376339;32;20119;-60
2021/12/08 03:56:51;;;;;;;2.78;1.08;;;4.80;99.90;;;;;;7380244;32;20615;-60
2021/12/08 04:00:56;;;;;;;3.12;0.90;;;4.90;99.90;;;;;;7378128;32;20107;-60
2021/12/08 04:04:58;;;;;;;1.23;0.82;;;5.00;99.90;;;;;;7364781;32;20162;-59
2021/12/08 04:09:04;;;;;;;3.83;1.05;;;5.00;99.90;;;;;;7364491;32;20241;-59
2021/12/08 04:13:06;;;;;;;3.17;1.10;;;5.10;99.90;;;;;;7370415;32;20129;-60
2021/12/08 04:17:22;;;;;;;2.55;1.23;;;5.00;99.90;;;;;;7380443;32;20103;-60
2021/12/08 04:21:25;;;;;;;1.58;1.02;;;5.00;99.90;;;;;;7382532;32;20200;-60
2021/12/08 04:25:31;;;;;;;3.28;1.02;;;4.90;99.90;;;;;;7366513;32;20812;-60
2021/12/08 04:29:37;;;;;;;3.67;1.25;;;4.90;99.90;;;;;;7368909;32;20515;-60
2021/12/08 04:33:39;;;;;;;2.72;1.00;;;4.90;99.90;;;;;;7373720;32;20470;-60
2021/12/08 04:37:47;;;;;;;3.37;1.08;;;4.90;99.90;;;;;;7367145;32;20133;-60
2021/12/08 04:41:55;;;;;;;4.68;1.98;;;4.90;99.90;;;;;;7362085;32;20145;-61
2021/12/08 04:46:33;;;;;;;4.45;1.12;;;4.90;99.90;;;;;;7367824;32;20141;-59
2021/12/08 05:08:15;;;;;;;2.17;1.20;;;5.00;99.90;;;;;;7370574;32;20530;-60
2021/12/08 05:12:20;;;;;;;3.08;1.15;;;4.90;99.90;;;;;;7379019;32;20103;-60
2021/12/08 05:16:24;;;;;;;2.60;1.10;;;5.00;99.90;;;;;;7371323;32;20111;-58
2021/12/08 05:20:26;;;;;;;5.12;1.20;;;5.00;99.90;;;;;;7368748;32;20103;-58
2021/12/08 05:24:34;;;;;;;4.93;1.10;;;5.00;99.90;;;;;;7372887;32;20115;-59
2021/12/08 05:28:37;;;;;;;5.57;1.37;;;5.00;99.90;;;;;;7378237;32;20131;-59
2021/12/08 05:32:40;;;;;;;3.53;1.20;;;5.10;99.90;;;;;;7385053;32;20111;-59
2021/12/08 05:36:42;;;;;;;4.57;1.40;;;5.10;99.90;;;;;;7377366;32;20490;-58
2021/12/08 05:41:00;;;;;;;5.68;1.40;;;5.10;99.90;;;;;;7383175;32;20370;-59
2021/12/08 05:45:08;;;;;;;3.33;1.15;;;5.00;99.90;;;;;;7367884;32;20555;-59
2021/12/08 05:49:12;;;;;;;4.95;1.40;;;5.00;99.90;;;;;;7363952;32;20551;-59
2021/12/08 05:53:15;;;;;;;3.22;1.40;;;4.90;99.90;;;;;;7383110;32;20210;-59
2021/12/08 05:57:32;;;;;;;3.60;1.23;;;4.90;99.90;;;;;;7385036;32;20129;-59
2021/12/08 06:01:36;;;;;;;5.78;1.48;;;4.90;99.90;;;;;;7372183;32;20678;-59
2021/12/08 06:05:41;;;;;;;3.45;1.50;;;4.90;99.90;;;;;;7380240;32;20130;-59
2021/12/08 06:09:43;;;;;;;3.50;1.25;;;4.80;99.90;;;;;;7376604;32;20131;-59
2021/12/08 06:13:47;;;;;;;7.47;1.67;;;4.80;99.90;;;;;;7369014;32;20205;-59
2021/12/08 06:17:50;;;;;;;4.37;1.60;;;4.80;99.90;;;;;;7383398;32;20115;-59
2021/12/08 06:21:51;;;;;;;2.50;1.17;;;4.80;99.90;;;;;;7367195;32;20348;-59
2021/12/08 06:25:53;;;;;;;6.40;1.95;;;4.70;99.90;;;;;;7373744;32;20547;-59
2021/12/08 06:29:55;;;;;;;4.12;1.70;;;4.70;99.90;;;;;;7375698;32;20205;-59
2021/12/08 06:33:57;;;;;;;5.93;1.83;;;4.60;99.90;;;;;;7377088;32;20129;-59
2021/12/08 06:37:59;;;;;;;6.45;2.17;;;4.70;99.90;;;;;;7377174;32;20601;-59
2021/12/08 06:42:06;;;;;;;5.85;1.70;;;4.70;99.90;;;;;;7374583;32;20135;-59
2021/12/08 06:46:08;;;;;;;3.47;1.60;;;4.70;99.90;;;;;;7378872;32;20130;-59
2021/12/08 06:50:18;;;;;;;5.60;1.75;;;4.70;99.90;;;;;;7383516;32;20307;-59
2021/12/08 06:54:26;;;;;;;5.72;1.77;;;4.80;99.90;;;;;;7368576;32;20761;-59
2021/12/08 06:58:34;;;;;;;5.85;2.20;;;4.80;99.90;;;;;;7374008;32;20206;-60
2021/12/08 07:07:00;;;;;;;6.53;2.05;;;4.90;99.90;;;;;;7378454;32;20201;-59
2021/12/08 07:11:04;;;;;;;5.87;1.80;;;4.80;99.90;;;;;;7380338;32;20198;-60
2021/12/08 07:15:11;;;;;;;9.02;2.40;;;5.00;99.90;;;;;;7368445;32;20759;-59
2021/12/08 07:19:29;;;;;;;8.27;2.03;;;5.00;99.90;;;;;;7378918;32;20134;-59
2021/12/08 07:23:38;;;;;;;9.68;2.17;;;5.00;99.90;;;;;;7380848;32;20118;-59
2021/12/08 07:27:41;;;;;;;6.37;1.62;;;5.00;99.90;;;;;;7377521;32;20932;-60
2021/12/08 07:31:47;;;;;;;7.32;1.92;;;5.00;99.90;;;;;;7362585;32;20124;-58
2021/12/08 07:35:56;;;;;;;6.82;1.73;;;4.90;99.90;;;;;;7379248;32;20215;-59
2021/12/08 07:40:15;;;;;;;6.95;1.62;;;5.00;99.90;;;;;;7380049;32;20235;-59
2021/12/08 07:44:17;;;;;;;5.72;1.92;;;4.90;99.90;;;;;;7376680;32;20114;-59
2021/12/08 07:48:25;;;;;;;8.55;1.90;;;4.90;99.90;;;;;;7374944;32;20137;-59
2021/12/08 07:52:33;;;;;;;3.65;1.60;;;4.90;99.90;;;;;;7374555;32;20133;-59
2021/12/08 07:56:37;;;;;;;6.80;1.77;;;4.80;99.90;;;;;;7376762;32;20216;-59
2021/12/08 08:00:50;;;;;;;6.05;1.65;;;4.80;99.90;;;;;;7378501;32;20549;-59
2021/12/08 08:04:54;;;;;;;5.40;1.90;;;4.80;99.90;;;;;;7379389;32;20534;-60
2021/12/08 08:08:56;;;;;;;5.90;1.55;;;4.80;99.90;;;;;;7372376;32;20230;-60
2021/12/08 08:13:01;;;;;;;6.37;1.70;;;4.80;99.90;;;;;;7374741;32;20134;-60
2021/12/08 08:17:05;;;;;;;6.87;1.70;;;4.80;99.90;;;;;;7379781;32;20505;-60
2021/12/08 08:21:14;;;;;;;8.85;1.95;;;4.80;99.90;;;;;;7375696;32;20637;-60
2021/12/08 08:25:20;;;;;;;8.93;1.58;;;4.80;99.90;;;;;;7371792;32;20111;-60
2021/12/08 08:29:22;;;;;;;7.40;1.70;;;4.80;99.90;;;;;;7373210;32;20107;-64
2021/12/08 08:33:28;;;;;;;4.40;1.60;;;4.90;99.90;;;;;;7377543;32;20571;-58
2021/12/08 08:37:30;;;;;;;5.43;1.92;;;4.90;99.90;;;;;;7374389;32;20111;-59
2021/12/08 08:41:40;;;;;;;3.95;1.70;;;5.00;99.90;;;;;;7376363;32;20742;-64
2021/12/08 08:45:54;;;;;;;8.60;2.17;;;5.00;99.90;;;;;;7378646;32;20626;-59
2021/12/08 08:49:56;;;;;;;10.05;2.80;;;5.10;99.90;;;;;;7376679;32;20293;-59
2021/12/08 08:54:19;;;;;;;8.15;1.87;;;5.10;99.90;;;;;;7368561;32;20186;-64
2021/12/08 08:58:34;;;;;;;5.30;2.00;;;5.20;99.90;;;;;;7379431;32;20202;-60
2021/12/08 09:02:40;;;;;;;9.13;1.98;;;5.20;99.90;;;;;;7376663;32;20565;-59
2021/12/08 09:06:45;;;;;;;6.18;2.12;;;5.30;99.90;;;;;;7370724;32;20153;-59
2021/12/08 09:10:56;;;;;;;6.90;1.73;;;5.40;99.90;;;;;;7384508;32;20099;-64
2021/12/08 09:15:10;;;;;;;11.65;1.98;;;5.50;99.90;;;;;;7384489;32;20103;-60
2021/12/08 09:19:20;;;;;;;6.28;1.85;;;5.50;99.90;;;;;;7380392;32;20230;-60
2021/12/08 09:23:32;;;;;;;8.90;1.90;;;5.50;99.90;;;;;;7373730;32;20106;-65
2021/12/08 09:27:44;;;;;;;7.05;2.10;;;5.70;99.90;;;;;;7379739;32;20144;-59
2021/12/08 09:32:04;;;;;;;3.45;1.50;;;5.70;99.90;;;;;;7354846;32;20130;-59
2021/12/08 09:36:12;;;;;;;5.85;1.70;;;5.80;99.90;;;;;;7378848;32;20194;-59
2021/12/08 09:40:25;;;;;;;6.90;2.05;;;5.90;99.90;;;;;;7380759;32;20124;-64
2021/12/08 09:44:38;;;;;;;8.13;2.25;;;6.00;99.90;;;;;;7379449;32;20243;-60
2021/12/08 09:48:43;;;;;;;4.00;1.37;;;6.00;99.90;;;;;;7352976;32;20137;-59
2021/12/08 09:52:47;;;;;;;7.80;2.00;;;6.00;99.90;;;;;;7383847;32;20107;-59
2021/12/08 09:56:50;;;;;;;8.05;1.83;;;6.00;99.90;;;;;;7382264;32;20545;-60
2021/12/08 10:00:57;;;;;;;11.73;2.15;;;6.20;99.90;;;;;;7377342;32;20194;-60
2021/12/08 10:05:00;;;;;;;;;;;6.30;99.90;;;;;;7352588;32;20103;-64
2021/12/08 10:09:02;;;;;;;10.43;1.85;;;6.30;99.90;;;;;;7370046;32;20032;-58
2021/12/08 10:13:05;;;;;;;6.70;1.83;;;6.40;99.90;;;;;;7385169;32;20522;-59
2021/12/08 10:17:07;;;;;;;10.15;2.05;;;6.50;99.90;;;;;;7366705;32;20444;-59
2021/12/08 10:21:11;;;;;;;8.95;1.85;;;6.60;99.90;;;;;;7374911;32;20103;-60
2021/12/08 10:25:15;;;;;;;5.12;1.30;;;6.60;99.90;;;;;;7360630;32;20100;-64
2021/12/08 10:29:24;;;;;;;5.87;1.85;;;6.60;99.90;;;;;;7373515;32;20129;-60
2021/12/08 10:33:49;;;;;;;7.00;1.42;;;6.70;99.90;;;;;;7370234;32;20668;-60
2021/12/08 10:38:01;;;;;;;8.23;1.60;;;6.70;99.90;;;;;;7380024;32;20114;-60
2021/12/08 10:42:08;;;;;;;8.32;1.65;;;6.70;99.90;;;;;;7378927;32;20135;-64
2021/12/08 10:46:16;;;;;;;6.85;1.67;;;6.70;99.90;;;;;;7373402;32;20178;-59
2021/12/08 10:54:45;;;;;;;7.70;2.05;;;6.80;99.90;;;;;;7372217;32;20410;-60
2021/12/08 10:58:50;;;;;;;9.38;1.75;;;6.80;99.90;;;;;;7371861;32;20845;-61
2021/12/08 11:02:55;;;;;;;8.52;1.45;;;6.70;99.90;;;;;;7366717;32;20174;-60
2021/12/08 11:07:08;;;;;;;8.95;1.70;;;6.80;99.90;;;;;;7362520;32;20198;-64
2021/12/08 11:11:22;;;;;;;9.02;1.70;;;6.90;99.90;;;;;;7369578;32;20154;-60
2021/12/08 11:15:25;;;;;;;5.05;1.48;;;6.80;99.90;;;;;;7379590;32;20103;-59
2021/12/08 11:19:27;;;;;;;7.28;1.65;;;6.90;99.90;;;;;;7374594;32;20237;-64
2021/12/08 11:23:43;;;;;;;8.88;1.70;;;7.00;99.90;;;;;;7374961;32;20186;-60
2021/12/08 11:27:45;;;;;;;7.28;1.55;;;7.10;99.90;;;;;;7377645;32;20103;-59
2021/12/08 11:31:49;;;;;;;3.78;1.30;;;7.20;99.90;;;;;;7368307;32;20170;-65
2021/12/08 11:36:18;;;;;;;4.03;1.48;;;7.20;99.90;;;;;;7364950;32;20142;-59
2021/12/08 11:40:24;;;;;;;4.43;1.37;;;7.20;99.90;;;;;;7367232;32;20125;-60
2021/12/08 11:44:30;;;;;;;6.82;1.45;;;7.10;99.90;;;;;;7346667;32;20121;-60
2021/12/08 11:48:33;;;;;;;10.18;2.20;;;7.20;99.90;;;;;;7380941;32;20190;-64
2021/12/08 11:52:35;;;;;;;5.97;1.35;;;7.10;99.90;;;;;;7375278;32;20119;-59
2021/12/08 11:56:40;;;;;;;4.85;1.12;;;7.10;99.90;;;;;;7371570;32;20280;-64
2021/12/08 12:00:47;;;;;;;7.93;1.50;;;7.10;99.90;;;;;;7376344;32;20111;-58
2021/12/08 12:04:49;;;;;;;;;;;7.10;99.90;;;;;;7372970;32;20123;-59
2021/12/08 12:08:51;;;;;;;5.45;1.58;;;7.20;99.90;;;;;;7382444;32;20128;-66
2021/12/08 12:13:12;;;;;;;6.43;1.33;;;7.10;99.90;;;;;;7365774;32;20477;-59
2021/12/08 12:17:15;;;;;;;4.93;1.00;;;7.20;99.90;;;;;;7369231;32;20130;-59
2021/12/08 12:21:33;;;;;;;7.95;1.30;;;7.20;99.90;;;;;;7380742;32;20633;-64
2021/12/08 12:26:09;;;;;;;4.10;0.85;;;7.20;99.90;;;;;;7374950;32;20844;-59
2021/12/08 12:30:24;;;;;;;4.85;1.15;;;7.10;99.90;;;;;;7376984;32;20107;-66
2021/12/08 12:34:32;;;;;;;6.62;1.20;;;7.20;99.90;;;;;;7366305;32;20622;-60
2021/12/08 12:38:39;;;;;;;5.35;0.90;;;7.20;99.90;;;;;;7378270;32;20178;-59
2021/12/08 12:42:54;;;;;;;8.80;1.17;;;7.10;99.90;;;;;;7376388;32;20382;-63
2021/12/08 12:47:28;;;;;;;8.57;0.85;;;7.10;99.90;;;;;;7351996;32;20095;-58
2021/12/08 12:51:57;;;;;;;7.85;1.15;;;7.20;99.90;;;;;;7356345;32;20705;-60
2021/12/08 12:55:59;;;;;;;4.90;0.95;;;7.10;99.90;;;;;;7357258;32;20103;-59
2021/12/08 13:00:01;;;;;;;8.88;0.90;;;7.10;99.90;;;;;;7376771;32;20140;-59
2021/12/08 13:04:12;;;;;;;6.40;0.90;;;7.00;99.90;;;;;;7379792;32;20236;-64
2021/12/08 13:08:35;;;;;;;8.18;1.17;;;7.10;99.90;;;;;;7353567;32;20507;-60
2021/12/08 13:12:37;;;;;;;7.20;1.00;;;7.10;99.90;;;;;;7370628;32;20592;-59
2021/12/08 13:16:39;;;;;;;8.23;0.73;;;7.00;99.90;;;;;;7368700;32;20163;-61
2021/12/08 13:20:46;;;;;;;3.53;0.85;;;7.00;99.90;;;;;;7373616;32;20111;-58
2021/12/08 13:24:47;;;;;;;8.30;1.43;;;7.00;99.90;;;;;;7372077;32;20221;-62
2021/12/08 13:29:03;;;;;;;5.57;1.12;;;6.90;99.90;;;;;;7364870;32;20182;-64
2021/12/08 13:33:09;;;;;;;7.82;0.90;;;6.90;99.90;;;;;;7369924;32;20137;-60
2021/12/08 13:37:23;;;;;;;3.53;0.80;;;6.90;99.90;;;;;;7375205;32;20111;-58
2021/12/08 13:41:35;;;;;;;6.20;0.82;;;6.90;99.90;;;;;;7377266;32;20142;-60
2021/12/08 13:45:44;;;;;;;3.60;0.65;;;7.00;99.90;;;;;;7360095;32;20149;-62
2021/12/08 13:49:51;;;;;;;5.37;0.80;;;6.90;99.90;;;;;;7372290;32;20107;-63
2021/12/08 13:54:26;;;;;;;4.25;1.05;;;7.00;99.90;;;;;;7380512;32;20111;-60
2021/12/08 13:58:37;;;;;;;1.90;0.73;;;7.00;99.90;;;;;;7377426;32;20244;-61
2021/12/08 14:02:40;;;;;;;2.53;0.80;;;7.10;99.90;;;;;;7372162;32;20461;-65
2021/12/08 14:06:41;;;;;;;6.53;1.15;;;7.10;99.90;;;;;;7374966;32;20629;-60
2021/12/08 14:10:47;;;;;;;4.53;0.88;;;7.10;99.90;;;;;;7369380;32;20198;-61
2021/12/08 14:14:57;;;;;;;2.60;0.73;;;7.10;99.90;;;;;;7378799;32;20458;-60
2021/12/08 14:18:59;;;;;;;4.70;0.70;;;7.00;99.90;;;;;;7365551;32;20163;-60
2021/12/08 14:23:17;;;;;;;3.78;0.85;;;6.90;99.90;;;;;;7374261;32;20803;-59
2021/12/08 14:27:19;;;;;;;2.95;0.73;;;6.90;99.90;;;;;;7372567;32;20110;-64
2021/12/08 14:31:36;;;;;;;3.62;0.60;;;6.90;99.90;;;;;;7371825;32;20150;-59
2021/12/08 14:35:38;;;;;;;6.68;1.20;;;6.90;99.90;;;;;;7375769;32;20297;-63
2021/12/08 14:39:50;;;;;;;6.78;1.12;;;7.00;99.90;;;;;;7367755;32;20547;-61
2021/12/08 14:43:53;;;;;;;3.72;0.90;;;7.00;99.90;;;;;;7371666;32;20114;-59
2021/12/08 14:47:54;;;;;;;5.57;1.00;;;6.90;99.90;;;;;;7381345;32;20111;-58
2021/12/08 14:52:03;;;;;;;4.65;1.10;;;6.90;99.90;;;;;;7378316;32;20619;-59
2021/12/08 14:56:12;;;;;;;6.25;1.45;;;6.90;99.90;;;;;;7385347;32;20670;-60
2021/12/08 15:00:25;;;;;;;5.25;1.15;;;6.70;99.90;;;;;;7383123;32;20210;-64
2021/12/08 15:04:28;;;;;;;7.30;0.90;;;6.60;99.90;;;;;;7383119;32;20158;-60
2021/12/08 15:08:40;;;;;;;6.30;1.20;;;6.60;99.90;;;;;;7378770;32;20566;-60
2021/12/08 15:12:45;;;;;;;3.03;0.52;;;6.40;99.90;;;;;;7366348;32;20130;-60
2021/12/08 15:16:49;;;;;;;5.07;1.00;;;6.30;99.90;;;;;;7383865;32;20107;-59
2021/12/08 15:21:26;;;;;;;8.27;0.80;;;6.20;99.90;;;;;;7383256;32;20386;-60
2021/12/08 15:25:30;;;;;;;4.75;1.08;;;6.00;99.90;;;;;;7375187;32;20104;-58
2021/12/08 15:29:38;;;;;;;9.32;2.10;;;5.90;99.90;;;;;;7383840;32;20129;-59
2021/12/08 15:33:40;;;;;;;6.22;1.67;;;5.70;99.90;;;;;;7377999;32;20257;-59
2021/12/08 15:37:55;;;;;;;6.70;2.10;;;5.50;99.90;;;;;;7372548;32;20102;-59
2021/12/08 15:41:59;;;;;;;5.78;1.60;;;5.40;99.90;;;;;;7372799;32;20107;-58
2021/12/08 15:46:00;;;;;;;5.10;1.20;;;5.30;99.90;;;;;;7375368;32;20111;-58
2021/12/08 15:50:43;;;;;;;5.90;1.52;;;5.20;99.90;;;;;;7381136;32;20221;-57
2021/12/08 15:54:47;;;;;;;5.78;1.55;;;5.20;99.90;;;;;;7377887;32;20221;-59
2021/12/08 15:58:51;;;;;;;6.45;1.20;;;5.20;99.90;;;;;;7383082;32;20110;-59
2021/12/08 16:02:52;;;;;;;4.32;1.10;;;5.20;99.90;;;;;;7374797;32;20562;-60
2021/12/08 16:06:56;;;;;;;4.95;1.15;;;5.40;99.90;;;;;;7381649;32;20198;-58
2021/12/08 16:10:57;;;;;;;4.60;1.30;;;5.40;99.90;;;;;;7371754;32;20111;-59
2021/12/08 16:15:02;;;;;;;4.50;1.15;;;5.40;99.90;;;;;;7379508;32;20103;-59
2021/12/08 16:19:11;;;;;;;3.55;1.05;;;5.40;99.90;;;;;;7378090;32;20115;-59
2021/12/08 16:23:12;;;;;;;7.28;1.00;;;5.40;99.90;;;;;;7382687;32;20115;-60
2021/12/08 16:27:17;;;;;;;7.15;1.23;;;5.40;99.90;;;;;;7381280;32;20142;-61
2021/12/08 16:31:19;;;;;;;8.00;1.20;;;5.60;99.90;;;;;;7377678;32;20134;-59
2021/12/08 16:35:21;;;;;;;9.20;1.20;;;5.70;99.90;;;;;;7377250;32;20115;-60
2021/12/08 16:39:30;;;;;;;6.87;1.73;;;5.70;99.90;;;;;;7382265;32;20156;-59
2021/12/08 16:43:32;;;;;;;6.75;1.30;;;5.80;99.90;;;;;;7378827;32;20110;-59
2021/12/08 16:47:34;;;;;;;3.12;1.17;;;5.70;99.90;;;;;;7380188;32;20870;-59
2021/12/08 16:51:37;;;;;;;7.35;1.50;;;5.80;99.90;;;;;;7376370;32;20135;-59
2021/12/08 16:55:38;;;;;;;5.87;1.50;;;5.80;99.90;;;;;;7381394;32;20221;-58
2021/12/08 16:59:40;;;;;;;6.93;1.23;;;5.90;99.90;;;;;;7379549;32;20230;-59
2021/12/08 17:03:42;;;;;;;10.32;1.55;;;5.90;99.90;;;;;;7381888;32;20123;-58
2021/12/08 17:07:44;;;;;;;5.22;1.00;;;6.00;99.90;;;;;;7382256;32;20133;-59
2021/12/08 17:11:45;;;;;;;4.75;1.15;;;6.10;99.90;;;;;;7381544;32;20153;-58
2021/12/08 17:15:47;;;;;;;9.00;1.70;;;6.10;99.90;;;;;;7379337;32;20600;-60
2021/12/08 17:19:51;;;;;;;8.60;1.70;;;6.10;99.90;;;;;;7374900;32;20107;-59
2021/12/08 17:23:53;;;;;;;5.75;1.40;;;6.10;99.90;;;;;;7374445;32;20206;-59
2021/12/08 17:27:54;;;;;;;6.00;1.67;;;6.10;99.90;;;;;;7383702;32;20527;-59
2021/12/08 17:31:56;;;;;;;6.90;1.10;;;6.00;99.90;;;;;;7384831;32;20199;-58
2021/12/08 17:36:00;;;;;;;6.07;1.58;;;6.10;99.90;;;;;;7380652;32;20281;-58
2021/12/08 17:40:03;;;;;;;6.62;1.52;;;6.10;99.90;;;;;;7376691;32;20111;-58
2021/12/08 17:44:05;;;;;;;6.57;1.90;;;6.00;99.90;;;;;;7384853;32;20225;-59
2021/12/08 17:48:07;;;;;;;4.93;1.20;;;6.00;99.90;;;;;;7384590;32;20136;-58
2021/12/08 17:52:09;;;;;;;10.48;1.23;;;6.10;99.90;;;;;;7379621;32;20626;-58
2021/12/08 17:56:11;;;;;;;8.52;1.30;;;6.10;99.90;;;;;;7385071;32;20115;-58
2021/12/08 18:00:17;;;;;;;4.12;1.83;;;6.10;99.90;;;;;;7380848;32;20134;-59
2021/12/08 18:04:18;;;;;;;4.55;1.20;;;6.00;99.90;;;;;;7372156;32;20201;-59
2021/12/08 18:08:21;;;;;;;8.60;2.85;;;6.00;99.90;;;;;;7386035;32;20228;-59
2021/12/08 18:12:23;;;;;;;5.60;1.52;;;6.00;99.90;;;;;;7381350;32;20531;-59
2021/12/08 18:16:26;;;;;;;3.25;1.30;;;5.90;99.90;;;;;;7382075;32;20547;-59
2021/12/08 18:20:30;;;;;;;7.07;1.20;;;5.80;99.90;;;;;;7378113;32;20116;-59
2021/12/08 18:24:36;;;;;;;6.32;1.35;;;5.80;99.90;;;;;;7363038;32;20779;-59
2021/12/08 18:28:38;;;;;;;5.30;1.25;;;5.80;99.90;;;;;;7367746;32;20645;-58
2021/12/08 18:32:40;;;;;;;8.40;1.55;;;5.80;99.90;;;;;;7373259;32;20114;-58
2021/12/08 18:36:43;;;;;;;6.03;1.20;;;5.90;99.90;;;;;;7377946;32;20118;-58
2021/12/08 18:40:45;;;;;;;6.35;1.17;;;5.90;99.90;;;;;;7373082;32;20578;-58
2021/12/08 18:44:48;;;;;;;5.40;1.45;;;5.90;99.90;;;;;;7373569;32;20856;-58
2021/12/08 18:48:51;;;;;;;6.22;1.77;;;5.90;99.90;;;;;;7384693;32;20640;-58
2021/12/08 18:52:53;;;;;;;7.18;1.65;;;6.00;99.90;;;;;;7379685;32;20206;-57
2021/12/08 18:56:55;;;;;;;5.50;1.30;;;5.80;99.90;;;;;;7369721;32;20141;-58
2021/12/08 19:00:57;;;;;;;8.25;1.50;;;5.90;99.90;;;;;;7378372;32;20130;-58
2021/12/08 19:04:59;;;;;;;8.27;1.62;;;5.90;99.90;;;;;;7367314;26;20150;-75
2021/12/08 19:09:04;;;;;;;6.30;1.85;;;6.00;99.90;;;;;;7310602;32;20139;-75
2021/12/08 19:13:06;;;;;;;5.07;1.37;;;6.00;99.90;;;;;;7317975;32;20501;-75
2021/12/08 19:17:08;;;;;;;3.78;1.37;;;6.00;99.90;;;;;;7303883;32;20123;-76
2021/12/08 19:21:12;;;;;;;4.97;1.33;;;6.00;99.90;;;;;;7312753;32;20107;-76
2021/12/08 19:25:15;;;;;;;2.72;1.27;;;6.00;99.90;;;;;;7321469;32;20770;-75
2021/12/08 19:29:17;;;;;;;7.43;1.55;;;5.90;99.90;;;;;;7320308;32;20789;-75
2021/12/08 19:33:20;;;;;;;6.70;1.40;;;5.90;99.90;;;;;;7299515;32;20684;-76
2021/12/08 19:37:23;;;;;;;5.25;1.62;;;5.90;99.90;;;;;;7321826;32;20715;-76
2021/12/08 19:41:26;;;;;;;4.60;1.37;;;6.00;99.90;;;;;;7311366;32;20226;-77
2021/12/08 19:45:31;;;;;;;5.43;1.48;;;5.90;99.90;;;;;;7322362;32;20234;-78
2021/12/08 19:49:33;;;;;;;6.55;1.98;;;5.90;99.90;;;;;;7329852;32;20108;-78
2021/12/08 19:53:37;;;;;;;4.50;1.25;;;5.80;99.90;;;;;;7327026;32;20610;-77
2021/12/08 19:57:39;;;;;;;6.25;1.85;;;5.80;99.90;;;;;;7330354;32;20114;-79
2021/12/08 20:01:42;;;;;;;5.60;1.48;;;5.70;99.90;;;;;;7325189;32;20107;-77
2021/12/08 20:05:46;;;;;;;6.07;1.92;;;5.60;99.90;;;;;;7323471;32;20129;-76
2021/12/08 20:09:47;;;;;;;9.07;1.87;;;5.50;99.90;;;;;;7328466;32;20217;-77
2021/12/08 20:13:50;;;;;;;6.15;1.58;;;5.50;99.90;;;;;;7312242;32;20654;-77
2021/12/08 20:17:52;;;;;;;5.72;1.65;;;5.50;99.90;;;;;;7315678;32;20123;-78
2021/12/08 20:21:54;;;;;;;6.00;2.05;;;5.50;99.90;;;;;;7319865;32;20112;-77
2021/12/08 20:25:55;;;;;;;7.85;1.80;;;5.30;99.90;;;;;;7318535;32;20168;-76
2021/12/08 20:29:58;;;;;;;3.47;1.50;;;5.10;99.90;;;;;;7328692;32;20266;-78
2021/12/08 20:34:00;;;;;;;6.07;1.30;;;5.00;99.90;;;;;;7324309;32;20232;-77
2021/12/08 20:38:06;;;;;;;10.57;1.75;;;4.80;99.90;;;;;;7318964;32;20256;-76
2021/12/08 20:42:08;;;;;;;4.35;1.40;;;4.70;99.90;;;;;;7320060;32;20260;-77
2021/12/08 20:46:11;;;;;;;4.80;1.45;;;4.60;99.90;;;;;;7317225;32;20167;-77
2021/12/08 20:50:13;;;;;;;3.70;1.20;;;4.60;99.90;;;;;;7318780;32;20165;-78
2021/12/08 20:54:15;;;;;;;7.90;1.67;;;4.50;99.90;;;;;;7340924;32;20096;-77
2021/12/08 20:58:18;;;;;;;4.28;1.75;;;4.50;99.90;;;;;;7328639;32;20466;-77
2021/12/08 21:02:22;;;;;;;5.50;1.52;;;4.50;99.90;;;;;;7312909;32;20161;-80
2021/12/08 21:06:40;;;;;;;5.12;1.50;;;4.50;99.90;;;;;;7322205;32;20123;-76
2021/12/08 21:10:43;;;;;;;7.03;1.65;;;4.40;99.90;;;;;;7319673;32;20183;-79
2021/12/08 21:14:45;;;;;;;3.92;1.37;;;4.50;99.90;;;;;;7308871;32;20830;-78
2021/12/08 21:18:47;;;;;;;9.75;1.40;;;4.60;99.90;;;;;;7326283;32;20119;-75
2021/12/08 21:22:49;;;;;;;5.62;1.73;;;4.60;99.90;;;;;;7324462;32;20191;-75
2021/12/08 21:26:54;;;;;;;7.50;1.40;;;4.60;99.90;;;;;;7324278;32;20179;-76
2021/12/08 21:30:55;;;;;;;4.65;1.50;;;4.60;99.90;;;;;;7319890;32;20168;-77
2021/12/08 21:35:00;;;;;;;7.18;1.52;;;4.60;99.90;;;;;;7326846;32;20209;-76
2021/12/08 21:39:05;;;;;;;4.85;1.70;;;4.60;99.90;;;;;;7324460;32;20143;-76
2021/12/08 21:43:08;;;;;;;4.93;1.40;;;4.60;99.90;;;;;;7325534;32;20639;-76
2021/12/08 21:47:10;;;;;;;7.30;1.87;;;4.50;99.90;;;;;;7327460;32;20566;-77
2021/12/08 21:51:13;;;;;;;4.87;1.83;;;4.50;99.90;;;;;;7317113;32;20524;-77
2021/12/08 21:55:18;;;;;;;6.30;1.80;;;4.40;99.90;;;;;;7321668;32;20388;-75
2021/12/08 21:59:19;;;;;;;5.55;1.65;;;4.40;99.90;;;;;;7323284;32;20142;-75
2021/12/08 22:03:23;;;;;;;4.18;1.60;;;4.30;99.90;;;;;;7322633;32;20163;-76
2021/12/08 22:07:25;;;;;;;10.52;1.48;;;4.20;99.90;;;;;;7309006;32;20195;-76
2021/12/08 22:11:27;;;;;;;8.30;1.50;;;4.10;99.90;;;;;;7324033;32;20241;-76
2021/12/08 22:15:29;;;;;;;4.72;1.35;;;4.10;99.90;;;;;;7313169;32;20798;-78
2021/12/08 22:19:30;;;;;;;6.53;2.00;;;4.00;99.90;;;;;;7318004;32;20142;-77
2021/12/08 22:23:33;;;;;;;7.07;2.15;;;3.90;99.90;;;;;;7321400;32;20174;-77
2021/12/08 22:27:36;;;;;;;7.57;3.00;;;4.00;99.90;;;;;;7316148;32;20115;-76